sensor_id;sensor_type;location;lat;lon;timestamp;P1;durP1;ratioP1;P2;durP2;ratioP2
35576;SDS011;21680;52.400;16.920;2023-04-15T00:01:04;14.60;;;6.60;;
35576;SDS011;21680;52.400;16.920;2023-04-15T00:03:30;17.00;;;6.70;;
35576;SDS011;21680;52.400;16.920;2023-04-15T00:05:56;10.00;;;5.80;;
35576;SDS011;21680;52.400;16.920;2023-04-15T00:08:22;12.10;;;7.50;;
35576;SDS011;21680;52.400;16.920;2023-04-15T00:10:47;14.80;;;6.90;;
35576;SDS011;21680;52.400;16.920;2023-04-15T00:13:13;13.90;;;6.60;;
35576;SDS011;21680;52.400;16.920;2023-04-15T00:15:39;9.20;;;6.10;;
35576;SDS011;21680;52.400;16.920;2023-04-15T00:18:05;10.50;;;6.70;;
35576;SDS011;21680;52.400;16.920;2023-04-15T00:20:32;14.60;;;6.40;;
35576;SDS011;21680;52.400;16.920;2023-04-15T00:22:58;10.40;;;6.90;;
35576;SDS011;21680;52.400;16.920;2023-04-15T00:25:24;12.40;;;6.30;;
35576;SDS011;21680;52.400;16.920;2023-04-15T00:27:50;14.90;;;7.00;;
35576;SDS011;21680;52.400;16.920;2023-04-15T00:30:15;16.00;;;6.40;;
35576;SDS011;21680;52.400;16.920;2023-04-15T00:32:40;16.20;;;6.70;;
35576;SDS011;21680;52.400;16.920;2023-04-15T00:35:06;14.80;;;6.90;;
35576;SDS011;21680;52.400;16.920;2023-04-15T00:37:32;10.60;;;6.50;;
35576;SDS011;21680;52.400;16.920;2023-04-15T00:39:59;13.80;;;6.80;;
35576;SDS011;21680;52.400;16.920;2023-04-15T00:42:24;11.80;;;6.80;;
35576;SDS011;21680;52.400;16.920;2023-04-15T00:44:50;11.30;;;6.70;;
35576;SDS011;21680;52.400;16.920;2023-04-15T00:47:15;10.30;;;6.10;;
35576;SDS011;21680;52.400;16.920;2023-04-15T00:49:42;11.70;;;6.10;;
35576;SDS011;21680;52.400;16.920;2023-04-15T00:52:07;17.50;;;7.40;;
35576;SDS011;21680;52.400;16.920;2023-04-15T00:54:33;16.30;;;7.90;;
35576;SDS011;21680;52.400;16.920;2023-04-15T00:56:58;12.90;;;6.50;;
35576;SDS011;21680;52.400;16.920;2023-04-15T00:59:24;12.50;;;6.80;;
35576;SDS011;21680;52.400;16.920;2023-04-15T01:01:50;11.70;;;6.70;;
35576;SDS011;21680;52.400;16.920;2023-04-15T01:04:16;12.50;;;6.50;;
35576;SDS011;21680;52.400;16.920;2023-04-15T01:06:41;13.20;;;6.90;;
35576;SDS011;21680;52.400;16.920;2023-04-15T01:09:07;12.60;;;7.50;;
35576;SDS011;21680;52.400;16.920;2023-04-15T01:11:32;13.70;;;6.90;;
35576;SDS011;21680;52.400;16.920;2023-04-15T01:13:58;10.10;;;6.90;;
35576;SDS011;21680;52.400;16.920;2023-04-15T01:16:24;13.50;;;7.10;;
35576;SDS011;21680;52.400;16.920;2023-04-15T01:18:49;10.70;;;6.80;;
35576;SDS011;21680;52.400;16.920;2023-04-15T01:21:16;16.20;;;7.10;;
35576;SDS011;21680;52.400;16.920;2023-04-15T01:23:42;11.60;;;7.30;;
35576;SDS011;21680;52.400;16.920;2023-04-15T01:26:11;12.30;;;6.90;;
35576;SDS011;21680;52.400;16.920;2023-04-15T01:28:37;17.00;;;7.10;;
35576;SDS011;21680;52.400;16.920;2023-04-15T01:31:06;14.80;;;7.20;;
35576;SDS011;21680;52.400;16.920;2023-04-15T01:33:33;11.00;;;6.60;;
35576;SDS011;21680;52.400;16.920;2023-04-15T01:35:58;14.60;;;7.30;;
35576;SDS011;21680;52.400;16.920;2023-04-15T01:38:25;9.70;;;6.40;;
35576;SDS011;21680;52.400;16.920;2023-04-15T01:40:51;12.10;;;6.90;;
35576;SDS011;21680;52.400;16.920;2023-04-15T01:43:17;13.20;;;6.60;;
35576;SDS011;21680;52.400;16.920;2023-04-15T01:45:43;14.20;;;7.00;;
35576;SDS011;21680;52.400;16.920;2023-04-15T01:48:08;12.70;;;6.80;;
35576;SDS011;21680;52.400;16.920;2023-04-15T01:50:33;10.50;;;6.60;;
35576;SDS011;21680;52.400;16.920;2023-04-15T01:53:00;10.80;;;6.50;;
35576;SDS011;21680;52.400;16.920;2023-04-15T01:55:26;14.70;;;7.40;;
35576;SDS011;21680;52.400;16.920;2023-04-15T01:57:51;15.40;;;7.70;;
35576;SDS011;21680;52.400;16.920;2023-04-15T02:00:16;15.10;;;6.80;;
35576;SDS011;21680;52.400;16.920;2023-04-15T02:02:41;12.50;;;6.90;;
35576;SDS011;21680;52.400;16.920;2023-04-15T02:05:07;13.30;;;7.20;;
35576;SDS011;21680;52.400;16.920;2023-04-15T02:07:32;14.30;;;7.00;;
35576;SDS011;21680;52.400;16.920;2023-04-15T02:09:58;13.30;;;6.80;;
35576;SDS011;21680;52.400;16.920;2023-04-15T02:12:23;15.60;;;7.50;;
35576;SDS011;21680;52.400;16.920;2023-04-15T02:14:48;13.10;;;6.80;;
35576;SDS011;21680;52.400;16.920;2023-04-15T02:17:13;13.50;;;8.00;;
35576;SDS011;21680;52.400;16.920;2023-04-15T02:19:39;15.90;;;7.10;;
35576;SDS011;21680;52.400;16.920;2023-04-15T02:22:05;14.50;;;7.60;;
35576;SDS011;21680;52.400;16.920;2023-04-15T02:24:31;12.30;;;7.20;;
35576;SDS011;21680;52.400;16.920;2023-04-15T02:26:57;11.50;;;6.20;;
35576;SDS011;21680;52.400;16.920;2023-04-15T02:29:23;12.70;;;6.90;;
35576;SDS011;21680;52.400;16.920;2023-04-15T02:31:48;11.30;;;6.70;;
35576;SDS011;21680;52.400;16.920;2023-04-15T02:34:14;13.40;;;7.20;;
35576;SDS011;21680;52.400;16.920;2023-04-15T02:36:39;11.90;;;7.50;;
35576;SDS011;21680;52.400;16.920;2023-04-15T02:39:05;12.50;;;6.90;;
35576;SDS011;21680;52.400;16.920;2023-04-15T02:41:30;19.20;;;7.40;;
35576;SDS011;21680;52.400;16.920;2023-04-15T02:43:55;11.80;;;7.20;;
35576;SDS011;21680;52.400;16.920;2023-04-15T02:46:21;19.70;;;8.60;;
35576;SDS011;21680;52.400;16.920;2023-04-15T02:48:47;13.10;;;7.30;;
35576;SDS011;21680;52.400;16.920;2023-04-15T02:51:14;12.90;;;7.10;;
35576;SDS011;21680;52.400;16.920;2023-04-15T02:53:40;12.80;;;7.60;;
35576;SDS011;21680;52.400;16.920;2023-04-15T02:56:06;15.20;;;8.10;;
35576;SDS011;21680;52.400;16.920;2023-04-15T02:58:32;13.50;;;7.10;;
35576;SDS011;21680;52.400;16.920;2023-04-15T03:00:59;11.00;;;6.90;;
35576;SDS011;21680;52.400;16.920;2023-04-15T03:03:24;13.50;;;7.60;;
35576;SDS011;21680;52.400;16.920;2023-04-15T03:05:50;13.00;;;7.50;;
35576;SDS011;21680;52.400;16.920;2023-04-15T03:08:16;14.00;;;8.00;;
35576;SDS011;21680;52.400;16.920;2023-04-15T03:10:41;16.10;;;7.10;;
35576;SDS011;21680;52.400;16.920;2023-04-15T03:13:06;11.50;;;7.60;;
35576;SDS011;21680;52.400;16.920;2023-04-15T03:15:31;15.20;;;7.70;;
35576;SDS011;21680;52.400;16.920;2023-04-15T03:17:57;14.00;;;7.60;;
35576;SDS011;21680;52.400;16.920;2023-04-15T03:20:22;15.10;;;8.90;;
35576;SDS011;21680;52.400;16.920;2023-04-15T03:22:48;12.40;;;7.40;;
35576;SDS011;21680;52.400;16.920;2023-04-15T03:25:13;16.80;;;9.00;;
35576;SDS011;21680;52.400;16.920;2023-04-15T03:27:38;12.30;;;8.00;;
35576;SDS011;21680;52.400;16.920;2023-04-15T03:30:03;15.70;;;7.90;;
35576;SDS011;21680;52.400;16.920;2023-04-15T03:32:30;14.20;;;8.50;;
35576;SDS011;21680;52.400;16.920;2023-04-15T03:34:56;13.50;;;8.60;;
35576;SDS011;21680;52.400;16.920;2023-04-15T03:37:21;16.50;;;9.50;;
35576;SDS011;21680;52.400;16.920;2023-04-15T03:39:46;14.90;;;8.70;;
35576;SDS011;21680;52.400;16.920;2023-04-15T03:42:12;13.80;;;7.70;;
35576;SDS011;21680;52.400;16.920;2023-04-15T03:44:37;17.00;;;9.30;;
35576;SDS011;21680;52.400;16.920;2023-04-15T03:47:02;16.70;;;9.00;;
35576;SDS011;21680;52.400;16.920;2023-04-15T03:49:27;15.60;;;9.80;;
35576;SDS011;21680;52.400;16.920;2023-04-15T03:51:53;15.00;;;9.30;;
35576;SDS011;21680;52.400;16.920;2023-04-15T03:54:18;14.60;;;9.60;;
35576;SDS011;21680;52.400;16.920;2023-04-15T03:56:43;17.40;;;10.70;;
35576;SDS011;21680;52.400;16.920;2023-04-15T03:59:08;18.20;;;10.70;;
35576;SDS011;21680;52.400;16.920;2023-04-15T04:01:34;19.10;;;11.00;;
35576;SDS011;21680;52.400;16.920;2023-04-15T04:03:59;16.50;;;10.30;;
35576;SDS011;21680;52.400;16.920;2023-04-15T04:06:25;17.50;;;10.60;;
35576;SDS011;21680;52.400;16.920;2023-04-15T04:08:50;20.30;;;10.50;;
35576;SDS011;21680;52.400;16.920;2023-04-15T04:11:15;17.40;;;11.00;;
35576;SDS011;21680;52.400;16.920;2023-04-15T04:13:41;22.80;;;11.90;;
35576;SDS011;21680;52.400;16.920;2023-04-15T04:16:06;18.00;;;11.20;;
35576;SDS011;21680;52.400;16.920;2023-04-15T04:18:32;19.20;;;11.90;;
35576;SDS011;21680;52.400;16.920;2023-04-15T04:20:57;18.40;;;12.00;;
35576;SDS011;21680;52.400;16.920;2023-04-15T04:23:23;18.90;;;11.80;;
35576;SDS011;21680;52.400;16.920;2023-04-15T04:25:48;21.80;;;12.40;;
35576;SDS011;21680;52.400;16.920;2023-04-15T04:28:13;17.40;;;10.30;;
35576;SDS011;21680;52.400;16.920;2023-04-15T04:30:39;18.10;;;12.30;;
35576;SDS011;21680;52.400;16.920;2023-04-15T04:33:04;22.00;;;12.70;;
35576;SDS011;21680;52.400;16.920;2023-04-15T04:35:31;17.10;;;11.90;;
35576;SDS011;21680;52.400;16.920;2023-04-15T04:37:58;23.00;;;12.50;;
35576;SDS011;21680;52.400;16.920;2023-04-15T04:40:24;20.70;;;13.40;;
35576;SDS011;21680;52.400;16.920;2023-04-15T04:42:50;20.40;;;12.10;;
35576;SDS011;21680;52.400;16.920;2023-04-15T04:45:15;24.40;;;12.60;;
35576;SDS011;21680;52.400;16.920;2023-04-15T04:47:40;22.30;;;13.10;;
35576;SDS011;21680;52.400;16.920;2023-04-15T04:50:06;21.10;;;13.10;;
35576;SDS011;21680;52.400;16.920;2023-04-15T04:52:33;20.10;;;13.30;;
35576;SDS011;21680;52.400;16.920;2023-04-15T04:54:58;19.50;;;12.20;;
35576;SDS011;21680;52.400;16.920;2023-04-15T04:57:23;20.40;;;12.60;;
35576;SDS011;21680;52.400;16.920;2023-04-15T04:59:48;19.30;;;12.60;;
35576;SDS011;21680;52.400;16.920;2023-04-15T05:02:15;19.80;;;12.40;;
35576;SDS011;21680;52.400;16.920;2023-04-15T05:04:41;22.10;;;12.80;;
35576;SDS011;21680;52.400;16.920;2023-04-15T05:07:06;22.20;;;13.10;;
35576;SDS011;21680;52.400;16.920;2023-04-15T05:09:32;22.60;;;14.10;;
35576;SDS011;21680;52.400;16.920;2023-04-15T05:12:00;19.60;;;12.60;;
35576;SDS011;21680;52.400;16.920;2023-04-15T05:14:25;20.40;;;13.60;;
35576;SDS011;21680;52.400;16.920;2023-04-15T05:16:51;24.40;;;13.10;;
35576;SDS011;21680;52.400;16.920;2023-04-15T05:19:17;16.20;;;11.30;;
35576;SDS011;21680;52.400;16.920;2023-04-15T05:21:43;20.60;;;12.90;;
35576;SDS011;21680;52.400;16.920;2023-04-15T05:24:08;23.80;;;12.60;;
35576;SDS011;21680;52.400;16.920;2023-04-15T05:26:33;21.80;;;12.30;;
35576;SDS011;21680;52.400;16.920;2023-04-15T05:28:59;19.60;;;13.10;;
35576;SDS011;21680;52.400;16.920;2023-04-15T05:31:24;23.10;;;13.40;;
35576;SDS011;21680;52.400;16.920;2023-04-15T05:33:50;23.30;;;12.50;;
35576;SDS011;21680;52.400;16.920;2023-04-15T05:36:15;22.30;;;13.60;;
35576;SDS011;21680;52.400;16.920;2023-04-15T05:38:41;23.50;;;13.70;;
35576;SDS011;21680;52.400;16.920;2023-04-15T05:41:06;19.30;;;12.40;;
35576;SDS011;21680;52.400;16.920;2023-04-15T05:43:31;21.10;;;12.70;;
35576;SDS011;21680;52.400;16.920;2023-04-15T05:45:57;23.80;;;13.40;;
35576;SDS011;21680;52.400;16.920;2023-04-15T05:48:22;19.80;;;13.00;;
35576;SDS011;21680;52.400;16.920;2023-04-15T05:50:47;22.70;;;13.20;;
35576;SDS011;21680;52.400;16.920;2023-04-15T05:53:12;21.40;;;12.90;;
35576;SDS011;21680;52.400;16.920;2023-04-15T05:55:38;22.60;;;13.50;;
35576;SDS011;21680;52.400;16.920;2023-04-15T05:58:03;18.90;;;12.50;;
35576;SDS011;21680;52.400;16.920;2023-04-15T06:00:28;20.00;;;12.70;;
35576;SDS011;21680;52.400;16.920;2023-04-15T06:02:54;22.10;;;12.30;;
35576;SDS011;21680;52.400;16.920;2023-04-15T06:05:20;18.70;;;12.40;;
35576;SDS011;21680;52.400;16.920;2023-04-15T06:07:45;20.40;;;13.00;;
35576;SDS011;21680;52.400;16.920;2023-04-15T06:10:10;21.40;;;13.10;;
35576;SDS011;21680;52.400;16.920;2023-04-15T06:12:36;19.40;;;12.30;;
35576;SDS011;21680;52.400;16.920;2023-04-15T06:15:01;21.70;;;12.70;;
35576;SDS011;21680;52.400;16.920;2023-04-15T06:17:28;23.20;;;13.90;;
35576;SDS011;21680;52.400;16.920;2023-04-15T06:19:53;17.80;;;11.60;;
35576;SDS011;21680;52.400;16.920;2023-04-15T06:22:23;19.00;;;12.50;;
35576;SDS011;21680;52.400;16.920;2023-04-15T06:24:48;17.80;;;11.60;;
35576;SDS011;21680;52.400;16.920;2023-04-15T06:27:17;16.80;;;11.90;;
35576;SDS011;21680;52.400;16.920;2023-04-15T06:29:43;17.70;;;10.80;;
35576;SDS011;21680;52.400;16.920;2023-04-15T06:32:08;20.60;;;12.40;;
35576;SDS011;21680;52.400;16.920;2023-04-15T06:34:34;20.30;;;12.10;;
35576;SDS011;21680;52.400;16.920;2023-04-15T06:36:59;19.60;;;12.40;;
35576;SDS011;21680;52.400;16.920;2023-04-15T06:39:25;16.10;;;10.60;;
35576;SDS011;21680;52.400;16.920;2023-04-15T06:41:51;18.90;;;11.80;;
35576;SDS011;21680;52.400;16.920;2023-04-15T06:44:17;16.40;;;10.90;;
35576;SDS011;21680;52.400;16.920;2023-04-15T06:46:43;15.10;;;10.00;;
35576;SDS011;21680;52.400;16.920;2023-04-15T06:49:09;19.10;;;11.10;;
35576;SDS011;21680;52.400;16.920;2023-04-15T06:51:35;19.10;;;10.40;;
35576;SDS011;21680;52.400;16.920;2023-04-15T06:54:00;19.20;;;10.60;;
35576;SDS011;21680;52.400;16.920;2023-04-15T06:56:26;15.90;;;9.90;;
35576;SDS011;21680;52.400;16.920;2023-04-15T06:58:53;16.30;;;10.60;;
35576;SDS011;21680;52.400;16.920;2023-04-15T07:01:18;17.10;;;11.00;;
35576;SDS011;21680;52.400;16.920;2023-04-15T07:03:45;16.10;;;10.50;;
35576;SDS011;21680;52.400;16.920;2023-04-15T07:06:10;16.10;;;9.70;;
35576;SDS011;21680;52.400;16.920;2023-04-15T07:08:36;15.50;;;9.90;;
35576;SDS011;21680;52.400;16.920;2023-04-15T07:11:01;14.60;;;9.90;;
35576;SDS011;21680;52.400;16.920;2023-04-15T07:13:29;17.40;;;10.20;;
35576;SDS011;21680;52.400;16.920;2023-04-15T07:15:55;15.30;;;8.80;;
35576;SDS011;21680;52.400;16.920;2023-04-15T07:18:20;13.40;;;8.90;;
35576;SDS011;21680;52.400;16.920;2023-04-15T07:20:46;15.00;;;9.60;;
35576;SDS011;21680;52.400;16.920;2023-04-15T07:23:12;16.90;;;9.80;;
35576;SDS011;21680;52.400;16.920;2023-04-15T07:25:37;13.50;;;9.70;;
35576;SDS011;21680;52.400;16.920;2023-04-15T07:28:02;17.10;;;10.60;;
35576;SDS011;21680;52.400;16.920;2023-04-15T07:30:28;13.60;;;9.10;;
35576;SDS011;21680;52.400;16.920;2023-04-15T07:32:54;16.40;;;10.50;;
35576;SDS011;21680;52.400;16.920;2023-04-15T07:35:20;13.70;;;9.80;;
35576;SDS011;21680;52.400;16.920;2023-04-15T07:37:47;17.40;;;10.10;;
35576;SDS011;21680;52.400;16.920;2023-04-15T07:40:12;16.20;;;10.60;;
35576;SDS011;21680;52.400;16.920;2023-04-15T07:42:38;17.90;;;10.30;;
35576;SDS011;21680;52.400;16.920;2023-04-15T07:45:04;14.40;;;9.60;;
35576;SDS011;21680;52.400;16.920;2023-04-15T07:47:30;16.20;;;10.80;;
35576;SDS011;21680;52.400;16.920;2023-04-15T07:49:55;17.50;;;10.70;;
35576;SDS011;21680;52.400;16.920;2023-04-15T07:52:21;19.30;;;8.90;;
35576;SDS011;21680;52.400;16.920;2023-04-15T07:54:46;14.90;;;10.10;;
35576;SDS011;21680;52.400;16.920;2023-04-15T07:57:12;15.30;;;10.30;;
35576;SDS011;21680;52.400;16.920;2023-04-15T07:59:37;14.30;;;9.60;;
35576;SDS011;21680;52.400;16.920;2023-04-15T08:02:02;14.40;;;9.90;;
35576;SDS011;21680;52.400;16.920;2023-04-15T08:04:28;14.70;;;9.40;;
35576;SDS011;21680;52.400;16.920;2023-04-15T08:06:53;15.80;;;10.20;;
35576;SDS011;21680;52.400;16.920;2023-04-15T08:09:18;15.50;;;9.20;;
35576;SDS011;21680;52.400;16.920;2023-04-15T08:11:46;18.40;;;9.40;;
35576;SDS011;21680;52.400;16.920;2023-04-15T08:14:13;14.50;;;10.00;;
35576;SDS011;21680;52.400;16.920;2023-04-15T08:16:38;11.70;;;9.10;;
35576;SDS011;21680;52.400;16.920;2023-04-15T08:19:03;13.60;;;9.30;;
35576;SDS011;21680;52.400;16.920;2023-04-15T08:21:29;14.60;;;9.40;;
35576;SDS011;21680;52.400;16.920;2023-04-15T08:23:54;12.80;;;9.00;;
35576;SDS011;21680;52.400;16.920;2023-04-15T08:26:20;13.90;;;9.60;;
35576;SDS011;21680;52.400;16.920;2023-04-15T08:28:46;14.90;;;9.50;;
35576;SDS011;21680;52.400;16.920;2023-04-15T08:31:16;14.60;;;9.80;;
35576;SDS011;21680;52.400;16.920;2023-04-15T08:33:42;14.20;;;9.20;;
35576;SDS011;21680;52.400;16.920;2023-04-15T08:36:07;14.30;;;9.10;;
35576;SDS011;21680;52.400;16.920;2023-04-15T08:38:33;10.80;;;7.90;;
35576;SDS011;21680;52.400;16.920;2023-04-15T08:40:59;13.80;;;9.00;;
35576;SDS011;21680;52.400;16.920;2023-04-15T08:43:32;14.70;;;8.90;;
35576;SDS011;21680;52.400;16.920;2023-04-15T08:45:59;12.90;;;9.00;;
35576;SDS011;21680;52.400;16.920;2023-04-15T08:48:29;14.40;;;8.80;;
35576;SDS011;21680;52.400;16.920;2023-04-15T08:50:57;13.30;;;9.10;;
35576;SDS011;21680;52.400;16.920;2023-04-15T08:53:23;12.70;;;9.00;;
35576;SDS011;21680;52.400;16.920;2023-04-15T08:55:50;20.20;;;9.90;;
35576;SDS011;21680;52.400;16.920;2023-04-15T08:58:18;15.00;;;9.60;;
35576;SDS011;21680;52.400;16.920;2023-04-15T09:00:44;15.00;;;10.10;;
35576;SDS011;21680;52.400;16.920;2023-04-15T09:03:10;14.10;;;9.00;;
35576;SDS011;21680;52.400;16.920;2023-04-15T09:05:35;17.20;;;11.50;;
35576;SDS011;21680;52.400;16.920;2023-04-15T09:08:01;16.60;;;10.80;;
35576;SDS011;21680;52.400;16.920;2023-04-15T09:10:27;17.40;;;10.20;;
35576;SDS011;21680;52.400;16.920;2023-04-15T09:12:53;16.40;;;10.50;;
35576;SDS011;21680;52.400;16.920;2023-04-15T09:15:19;15.10;;;9.50;;
35576;SDS011;21680;52.400;16.920;2023-04-15T09:17:47;13.00;;;9.40;;
35576;SDS011;21680;52.400;16.920;2023-04-15T09:20:13;13.60;;;9.00;;
35576;SDS011;21680;52.400;16.920;2023-04-15T09:22:40;13.20;;;9.70;;
35576;SDS011;21680;52.400;16.920;2023-04-15T09:27:52;18.20;;;9.90;;
35576;SDS011;21680;52.400;16.920;2023-04-15T09:30:23;16.40;;;9.20;;
35576;SDS011;21680;52.400;16.920;2023-04-15T09:32:51;13.80;;;9.00;;
35576;SDS011;21680;52.400;16.920;2023-04-15T09:35:19;14.30;;;10.20;;
35576;SDS011;21680;52.400;16.920;2023-04-15T09:37:45;13.60;;;9.90;;
35576;SDS011;21680;52.400;16.920;2023-04-15T09:40:11;15.20;;;10.60;;
35576;SDS011;21680;52.400;16.920;2023-04-15T09:42:42;13.50;;;9.40;;
35576;SDS011;21680;52.400;16.920;2023-04-15T09:45:18;17.30;;;10.90;;
35576;SDS011;21680;52.400;16.920;2023-04-15T09:47:44;19.50;;;11.90;;
35576;SDS011;21680;52.400;16.920;2023-04-15T09:50:09;18.10;;;11.20;;
35576;SDS011;21680;52.400;16.920;2023-04-15T09:52:39;21.20;;;10.80;;
35576;SDS011;21680;52.400;16.920;2023-04-15T09:55:08;19.70;;;11.30;;
35576;SDS011;21680;52.400;16.920;2023-04-15T09:57:34;18.80;;;10.10;;
35576;SDS011;21680;52.400;16.920;2023-04-15T10:00:02;9.90;;;7.30;;
35576;SDS011;21680;52.400;16.920;2023-04-15T10:02:29;7.40;;;4.80;;
35576;SDS011;21680;52.400;16.920;2023-04-15T10:04:56;6.30;;;4.80;;
35576;SDS011;21680;52.400;16.920;2023-04-15T10:07:22;6.70;;;4.20;;
35576;SDS011;21680;52.400;16.920;2023-04-15T10:09:48;8.70;;;5.00;;
35576;SDS011;21680;52.400;16.920;2023-04-15T10:12:17;6.50;;;4.50;;
35576;SDS011;21680;52.400;16.920;2023-04-15T10:14:43;8.50;;;5.80;;
35576;SDS011;21680;52.400;16.920;2023-04-15T10:17:12;6.90;;;5.10;;
35576;SDS011;21680;52.400;16.920;2023-04-15T10:19:41;7.50;;;5.20;;
35576;SDS011;21680;52.400;16.920;2023-04-15T10:22:07;8.10;;;5.10;;
35576;SDS011;21680;52.400;16.920;2023-04-15T10:24:33;7.30;;;4.40;;
35576;SDS011;21680;52.400;16.920;2023-04-15T10:26:59;5.80;;;4.20;;
35576;SDS011;21680;52.400;16.920;2023-04-15T10:29:25;10.90;;;5.80;;
35576;SDS011;21680;52.400;16.920;2023-04-15T10:31:52;9.20;;;5.70;;
35576;SDS011;21680;52.400;16.920;2023-04-15T10:34:20;9.80;;;5.30;;
35576;SDS011;21680;52.400;16.920;2023-04-15T10:36:47;12.10;;;7.30;;
35576;SDS011;21680;52.400;16.920;2023-04-15T10:39:37;12.60;;;6.60;;
35576;SDS011;21680;52.400;16.920;2023-04-15T10:42:04;10.20;;;6.00;;
35576;SDS011;21680;52.400;16.920;2023-04-15T10:44:41;8.60;;;5.60;;
35576;SDS011;21680;52.400;16.920;2023-04-15T10:47:10;8.60;;;5.60;;
35576;SDS011;21680;52.400;16.920;2023-04-15T10:49:49;9.10;;;4.80;;
35576;SDS011;21680;52.400;16.920;2023-04-15T10:52:29;6.80;;;4.90;;
35576;SDS011;21680;52.400;16.920;2023-04-15T10:57:37;8.60;;;5.00;;
35576;SDS011;21680;52.400;16.920;2023-04-15T11:00:10;9.90;;;4.70;;
35576;SDS011;21680;52.400;16.920;2023-04-15T11:05:03;10.70;;;6.30;;
35576;SDS011;21680;52.400;16.920;2023-04-15T11:12:43;11.60;;;7.20;;
35576;SDS011;21680;52.400;16.920;2023-04-15T11:17:58;14.00;;;7.50;;
35576;SDS011;21680;52.400;16.920;2023-04-15T11:20:32;15.90;;;7.10;;
35576;SDS011;21680;52.400;16.920;2023-04-15T11:22:58;11.40;;;6.70;;
35576;SDS011;21680;52.400;16.920;2023-04-15T11:25:30;14.10;;;7.40;;
35576;SDS011;21680;52.400;16.920;2023-04-15T11:27:57;17.10;;;7.20;;
35576;SDS011;21680;52.400;16.920;2023-04-15T11:30:24;10.30;;;5.40;;
35576;SDS011;21680;52.400;16.920;2023-04-15T11:32:51;12.10;;;6.90;;
35576;SDS011;21680;52.400;16.920;2023-04-15T11:35:19;10.50;;;5.80;;
35576;SDS011;21680;52.400;16.920;2023-04-15T11:37:45;9.20;;;6.50;;
35576;SDS011;21680;52.400;16.920;2023-04-15T11:40:16;11.50;;;5.60;;
35576;SDS011;21680;52.400;16.920;2023-04-15T11:42:47;8.20;;;4.00;;
35576;SDS011;21680;52.400;16.920;2023-04-15T11:45:28;7.50;;;4.50;;
35576;SDS011;21680;52.400;16.920;2023-04-15T11:47:53;5.30;;;3.50;;
35576;SDS011;21680;52.400;16.920;2023-04-15T11:52:55;7.30;;;4.20;;
35576;SDS011;21680;52.400;16.920;2023-04-15T11:55:22;7.60;;;4.00;;
35576;SDS011;21680;52.400;16.920;2023-04-15T11:58:05;7.60;;;4.60;;
35576;SDS011;21680;52.400;16.920;2023-04-15T12:00:44;6.20;;;3.90;;
35576;SDS011;21680;52.400;16.920;2023-04-15T12:03:12;6.40;;;3.30;;
35576;SDS011;21680;52.400;16.920;2023-04-15T12:09:02;6.80;;;4.40;;
35576;SDS011;21680;52.400;16.920;2023-04-15T12:11:32;6.20;;;4.70;;
35576;SDS011;21680;52.400;16.920;2023-04-15T12:16:46;9.00;;;5.40;;
35576;SDS011;21680;52.400;16.920;2023-04-15T12:19:21;9.50;;;5.60;;
35576;SDS011;21680;52.400;16.920;2023-04-15T12:22:09;12.30;;;5.50;;
35576;SDS011;21680;52.400;16.920;2023-04-15T12:24:37;8.90;;;5.80;;
35576;SDS011;21680;52.400;16.920;2023-04-15T12:27:04;8.90;;;4.80;;
35576;SDS011;21680;52.400;16.920;2023-04-15T12:29:35;7.10;;;4.60;;
35576;SDS011;21680;52.400;16.920;2023-04-15T12:32:06;6.10;;;4.70;;
35576;SDS011;21680;52.400;16.920;2023-04-15T12:34:33;10.30;;;6.10;;
35576;SDS011;21680;52.400;16.920;2023-04-15T12:37:01;9.30;;;5.30;;
35576;SDS011;21680;52.400;16.920;2023-04-15T12:39:30;7.50;;;5.10;;
35576;SDS011;21680;52.400;16.920;2023-04-15T12:41:59;8.20;;;5.20;;
35576;SDS011;21680;52.400;16.920;2023-04-15T12:44:25;9.80;;;6.00;;
35576;SDS011;21680;52.400;16.920;2023-04-15T12:46:52;8.80;;;5.80;;
35576;SDS011;21680;52.400;16.920;2023-04-15T12:49:17;9.40;;;5.90;;
35576;SDS011;21680;52.400;16.920;2023-04-15T12:51:44;8.80;;;6.00;;
35576;SDS011;21680;52.400;16.920;2023-04-15T12:54:12;9.70;;;5.70;;
35576;SDS011;21680;52.400;16.920;2023-04-15T12:56:37;9.10;;;5.80;;
35576;SDS011;21680;52.400;16.920;2023-04-15T12:59:03;9.10;;;5.70;;
35576;SDS011;21680;52.400;16.920;2023-04-15T13:01:30;9.00;;;5.30;;
35576;SDS011;21680;52.400;16.920;2023-04-15T13:03:55;9.70;;;5.80;;
35576;SDS011;21680;52.400;16.920;2023-04-15T13:06:22;8.90;;;5.90;;
35576;SDS011;21680;52.400;16.920;2023-04-15T13:08:48;20.00;;;5.70;;
35576;SDS011;21680;52.400;16.920;2023-04-15T13:11:13;9.60;;;7.00;;
35576;SDS011;21680;52.400;16.920;2023-04-15T13:13:39;10.10;;;6.60;;
35576;SDS011;21680;52.400;16.920;2023-04-15T13:16:04;10.80;;;6.80;;
35576;SDS011;21680;52.400;16.920;2023-04-15T13:18:35;9.50;;;6.00;;
35576;SDS011;21680;52.400;16.920;2023-04-15T13:21:00;10.00;;;6.20;;
35576;SDS011;21680;52.400;16.920;2023-04-15T13:23:26;9.60;;;6.70;;
35576;SDS011;21680;52.400;16.920;2023-04-15T13:25:51;13.70;;;6.90;;
35576;SDS011;21680;52.400;16.920;2023-04-15T13:28:17;11.00;;;6.70;;
35576;SDS011;21680;52.400;16.920;2023-04-15T13:30:42;16.50;;;7.60;;
35576;SDS011;21680;52.400;16.920;2023-04-15T13:33:08;13.10;;;7.10;;
35576;SDS011;21680;52.400;16.920;2023-04-15T13:35:33;9.10;;;6.40;;
35576;SDS011;21680;52.400;16.920;2023-04-15T13:37:59;10.30;;;7.30;;
35576;SDS011;21680;52.400;16.920;2023-04-15T13:40:25;10.50;;;6.80;;
35576;SDS011;21680;52.400;16.920;2023-04-15T13:42:50;13.20;;;8.60;;
35576;SDS011;21680;52.400;16.920;2023-04-15T13:45:17;15.00;;;9.80;;
35576;SDS011;21680;52.400;16.920;2023-04-15T13:47:42;14.50;;;8.30;;
35576;SDS011;21680;52.400;16.920;2023-04-15T13:50:08;13.20;;;8.10;;
35576;SDS011;21680;52.400;16.920;2023-04-15T13:52:34;12.30;;;6.80;;
35576;SDS011;21680;52.400;16.920;2023-04-15T13:54:59;12.50;;;7.20;;
35576;SDS011;21680;52.400;16.920;2023-04-15T13:57:25;12.40;;;6.90;;
35576;SDS011;21680;52.400;16.920;2023-04-15T13:59:50;10.60;;;7.00;;
35576;SDS011;21680;52.400;16.920;2023-04-15T14:02:16;8.70;;;6.60;;
35576;SDS011;21680;52.400;16.920;2023-04-15T14:04:45;9.50;;;7.30;;
35576;SDS011;21680;52.400;16.920;2023-04-15T14:07:10;10.40;;;6.50;;
35576;SDS011;21680;52.400;16.920;2023-04-15T14:09:37;10.80;;;7.00;;
35576;SDS011;21680;52.400;16.920;2023-04-15T14:12:02;9.00;;;6.60;;
35576;SDS011;21680;52.400;16.920;2023-04-15T14:14:28;7.60;;;6.10;;
35576;SDS011;21680;52.400;16.920;2023-04-15T14:16:54;11.20;;;6.30;;
35576;SDS011;21680;52.400;16.920;2023-04-15T14:19:20;10.00;;;6.50;;
35576;SDS011;21680;52.400;16.920;2023-04-15T14:21:46;9.40;;;6.70;;
35576;SDS011;21680;52.400;16.920;2023-04-15T14:24:11;11.50;;;6.50;;
35576;SDS011;21680;52.400;16.920;2023-04-15T14:26:36;7.90;;;5.80;;
35576;SDS011;21680;52.400;16.920;2023-04-15T14:29:01;9.50;;;6.70;;
35576;SDS011;21680;52.400;16.920;2023-04-15T14:31:27;10.90;;;7.00;;
35576;SDS011;21680;52.400;16.920;2023-04-15T14:33:52;9.30;;;7.20;;
35576;SDS011;21680;52.400;16.920;2023-04-15T14:36:17;9.50;;;6.50;;
35576;SDS011;21680;52.400;16.920;2023-04-15T14:38:43;9.00;;;6.60;;
35576;SDS011;21680;52.400;16.920;2023-04-15T14:41:08;10.20;;;6.60;;